Flight Track Log - Related Links

Times and Time Zones

All times are in EDT time to prevent confusion due to time zone crossing. See the N319EE flight status page for this flight to view local times or setup timezone preferences in your user account.

Time Position Orientation Groundspeed Altitude Reporting Facility
EDT Latitude Longitude Course Direction KTS MPH feet Rate Location/Type
Tue 07:13:22 AM 43.6461 -70.3597 279° West 163 188 1,100  Level Boston Center
Tue 07:14:23 AM 43.6542 -70.4306 279° West 184 212 2,800 1,770 Climbing Boston Center
Tue 07:15:24 AM 43.6672 -70.4964 285° West 178 205 4,700 1,721 Climbing Boston Center
Tue 07:16:25 AM 43.6811 -70.5631 286° West 180 207 6,300 1,736 Climbing Boston Center
Tue 07:17:25 AM 43.6944 -70.6392 284° West 189 217 8,200 1,850 Climbing Boston Center
Tue 07:18:25 AM 43.7075 -70.7111 284° West 193 222 10,000 1,736 Climbing Boston Center
Tue 07:19:26 AM 43.7128 -70.7861 276° West 200 230 11,700 1,645 Climbing Boston Center
Tue 07:20:29 AM 43.7061 -70.8617 263° West 199 229 13,400 1,403 Climbing Boston Center
Tue 07:21:30 AM 43.7017 -70.9428 266° West 211 243 14,600 1,438 Climbing Boston Center
Tue 07:22:30 AM 43.6953 -71.0314 264° West 215 247 16,300 1,550 Climbing Boston Center
Tue 07:23:30 AM 43.6917 -71.1103 266° West 207 238 17,700 1,140 Climbing Boston Center
Tue 07:24:31 AM 43.6875 -71.1792 265° West 209 241 18,600 984 Climbing Boston Center
Tue 07:25:32 AM 43.6822 -71.2622 265° West 214 246 19,700 689 Climbing Boston Center
Tue 07:26:33 AM 43.6767 -71.3522 265° West 230 265 20,000 148 Climbing Boston Center
Tue 07:27:34 AM 43.6703 -71.4494 265° West 248 285 20,000  Level Boston Center
Tue 07:28:35 AM 43.6631 -71.5589 265° West 261 300 20,000  Level Boston Center
Tue 07:29:35 AM 43.6583 -71.6628 266° West 267 307 20,000  Level Boston Center
Tue 07:30:36 AM 43.6525 -71.7636 265° West 266 306 20,000  Level Boston Center
Tue 07:31:39 AM 43.6464 -71.8647 265° West 266 306 20,000  Level Boston Center
Tue 07:32:40 AM 43.6383 -71.9653 264° West 264 304 20,000  Level Boston Center
Tue 07:33:41 AM 43.6306 -72.0867 265° West 266 306 20,000  Level Boston Center
Tue 07:34:42 AM 43.6247 -72.1875 265° West 264 304 20,000  Level Boston Center
Tue 07:35:43 AM 43.6169 -72.2881 264° West 265 305 20,000  Level Boston Center
Tue 07:36:43 AM 43.6103 -72.3872 265° West 261 300 20,000  Level Boston Center
Tue 07:37:43 AM 43.6036 -72.4875 265° West 263 303 20,000  Level Boston Center
Tue 07:38:44 AM 43.5958 -72.5878 264° West 264 304 20,000  Level Boston Center
Tue 07:39:47 AM 43.5900 -72.6894 266° West 266 306 20,000  Level Boston Center
Tue 07:40:48 AM 43.5817 -72.7889 263° West 263 303 20,000  Level Boston Center
Tue 07:41:48 AM 43.5756 -72.8872 265° West 260 299 20,000  Level Boston Center
Tue 07:42:49 AM 43.5675 -72.9853 264° West 259 298 20,000  Level Boston Center
Tue 07:43:49 AM 43.5589 -73.0956 264° West 256 295 20,000  Level Boston Center
Tue 07:44:50 AM 43.5517 -73.1936 264° West 256 295 20,000  Level Boston Center
Tue 07:45:51 AM 43.5444 -73.2906 264° West 255 293 20,000  Level Boston Center
Tue 07:46:54 AM 43.5364 -73.3867 263° West 253 291 20,000  Level Boston Center
Tue 07:47:55 AM 43.5297 -73.4839 265° West 253 291 20,000  Level Boston Center
Tue 07:48:55 AM 43.5214 -73.5797 263° West 253 291 20,000  Level Boston Center
Tue 07:49:57 AM 43.5131 -73.6739 263° West 250 288 20,000  Level Boston Center
Tue 07:50:57 AM 43.5050 -73.7703 263° West 252 290 20,000  Level Boston Center
Tue 07:51:58 AM 43.4961 -73.8858 264° West 253 291 20,000  Level Boston Center
Tue 07:52:59 AM 43.4878 -73.9819 263° West 253 291 20,000  Level Boston Center
Tue 07:54:00 AM 43.4792 -74.0764 263° West 251 289 20,000  Level Boston Center
Tue 07:55:00 AM 43.4722 -74.1742 264° West 250 288 20,000  Level Boston Center
Tue 07:56:02 AM 43.4636 -74.2697 263° West 251 289 20,000  Level Boston Center
Tue 07:57:04 AM 43.4547 -74.3636 263° West 249 287 20,000  Level Boston Center
Tue 07:58:05 AM 43.4472 -74.4581 264° West 249 287 20,000  Level Boston Center
Tue 07:59:05 AM 43.4386 -74.5519 263° West 249 287 20,000  Level Boston Center
Tue 08:00:06 AM 43.4303 -74.6447 263° West 246 283 20,000  Level Boston Center
Tue 08:01:06 AM 43.4222 -74.7389 263° West 248 285 20,000  Level Boston Center
Tue 08:02:07 AM 43.4136 -74.8314 263° West 246 283 20,000  Level Boston Center
Tue 08:03:08 AM 43.4050 -74.9242 263° West 246 283 20,000  Level Boston Center
Tue 08:04:11 AM 43.3967 -75.0167 263° West 244 281 20,000  Level Boston Center
Tue 08:05:12 AM 43.3886 -75.1083 263° West 244 281 20,000  Level Boston Center
Tue 08:06:13 AM 43.3792 -75.2178 263° West 244 281 20,000  Level Boston Center
Tue 08:07:13 AM 43.3714 -75.3164 264° West 249 287 20,000  Level Boston Center
Tue 08:08:15 AM 43.3614 -75.4003 261° West 247 284 20,000  Level Boston Center
Tue 08:09:15 AM 43.3525 -75.4919 262° West 244 281 20,000  Level Boston Center
Tue 08:10:16 AM 43.3436 -75.5842 262° West 243 280 20,000  Level Boston Center
Tue 08:11:16 AM 43.3344 -75.6772 262° West 246 283 20,000  Level Boston Center
Tue 08:12:16 AM 43.3256 -75.7692 262° West 245 282 20,000  Level Boston Center
Tue 08:13:20 AM 43.3164 -75.8603 262° West 242 278 20,000  Level Boston Center
Tue 08:14:20 AM 43.3058 -75.9703 263° West 243 280 20,000 -496 Level Boston Center
Tue 08:15:21 AM 43.2958 -76.0683 262° West 258 297 19,000 -984 Descending Boston Center
Tue 08:16:22 AM 43.2850 -76.1736 262° West 276 318 18,000 -492 Descending Boston Center
Tue 08:17:23 AM 43.2750 -76.2744 262° West 270 311 18,000  Level Boston Center
Tue 08:18:33 AM 43.2614 -76.3881 261° West 257 296 18,000  Level Cleveland Center
Tue 08:19:35 AM 43.2522 -76.4808 262° West 248 285 18,000 -290 Level Cleveland Center
Tue 08:20:37 AM 43.2417 -76.5739 261° West 248 285 17,400 -944 Descending Cleveland Center
Tue 08:21:23 AM 43.2303 -76.6678 261° West 273 314 16,300 -1,355 Descending Cleveland Center
Tue 08:21:39 AM 43.2300 -76.6778 268° West 267 307 16,000 -1,791 Descending Cleveland Center
Tue 08:22:30 AM 43.2186 -76.7864 262° West 301 346 14,300 -1,742 Descending Cleveland Center
Tue 08:22:41 AM 43.2169 -76.7889 228° Southwest 288 331 14,200 -1,377 Descending Cleveland Center
Tue 08:23:31 AM 43.2061 -76.8961 262° West 294 338 12,900 -1,452 Descending Cleveland Center
Tue 08:23:43 AM 43.2050 -76.9211 267° West 293 337 12,700 -1,300 Descending Cleveland Center
Tue 08:24:31 AM 43.1944 -77.0119 261° West 284 327 11,600 -1,258 Descending Cleveland Center
Tue 08:24:45 AM 43.1922 -77.0278 259° West 285 328 11,400 -1,279 Descending Cleveland Center
Tue 08:25:32 AM 43.1825 -77.1161 261° West 278 320 10,300 -1,258 Descending Cleveland Center
Tue 08:25:47 AM 43.1831 -77.1331 273° West 280 322 10,100 -1,403 Descending Cleveland Center
Tue 08:26:49 AM 43.1786 -77.2328 267° West 267 307 8,500 -1,607 Descending Cleveland Center
Tue 08:27:39 AM 43.1706 -77.3247 263° West 264 304 7,100 -1,548 Descending Cleveland Center
Tue 08:27:51 AM 43.1719 -77.3322 284° West 265 305 6,900 -1,279 Descending Cleveland Center
Tue 08:28:40 AM 43.1669 -77.4106 265° West 221 254 5,800 -1,258 Descending Cleveland Center
Tue 08:28:53 AM 43.1681 -77.4203 279° West 248 285 5,600 -2,080 Descending Cleveland Center
Tue 08:29:55 AM 43.1586 -77.5144 262° West 221 254 3,200 -1,941 Descending Cleveland Center
Tue 08:30:35 AM 43.1500 -77.5628 256° West 208 239 2,300 -1,200 Descending Cleveland Center
Tue 08:31:35 AM 43.1328 -77.6247 249° West 136 157 1,200 -1,100 Descending Cleveland Center

Login

Don't have an account? Register now (free) for customized features, flight alerts, and more!